sensor_id;sensor_type;location;lat;lon;timestamp;pressure;altitude;pressure_sealevel;temperature;humidity
5522;BME280;2783;48.730;8.006;2023-04-26T00:02:03;100229.84;;;9.63;100.00
5522;BME280;2783;48.730;8.006;2023-04-26T00:04:29;100227.31;;;9.58;100.00
5522;BME280;2783;48.730;8.006;2023-04-26T00:06:54;100230.13;;;9.52;100.00
5522;BME280;2783;48.730;8.006;2023-04-26T00:09:20;100225.84;;;9.47;100.00
5522;BME280;2783;48.730;8.006;2023-04-26T00:11:45;100221.53;;;9.41;100.00
5522;BME280;2783;48.730;8.006;2023-04-26T00:14:11;100209.28;;;9.37;100.00
5522;BME280;2783;48.730;8.006;2023-04-26T00:16:36;100212.06;;;9.31;100.00
5522;BME280;2783;48.730;8.006;2023-04-26T00:19:01;100207.81;;;9.24;100.00
5522;BME280;2783;48.730;8.006;2023-04-26T00:21:28;100217.75;;;9.14;100.00
5522;BME280;2783;48.730;8.006;2023-04-26T00:23:53;100219.69;;;9.08;100.00
5522;BME280;2783;48.730;8.006;2023-04-26T00:26:18;100220.75;;;9.01;100.00
5522;BME280;2783;48.730;8.006;2023-04-26T00:28:44;100218.16;;;8.98;100.00
5522;BME280;2783;48.730;8.006;2023-04-26T00:31:15;100221.72;;;8.97;100.00
5522;BME280;2783;48.730;8.006;2023-04-26T00:33:41;100224.41;;;8.95;100.00
5522;BME280;2783;48.730;8.006;2023-04-26T00:36:06;100227.16;;;8.92;100.00
5522;BME280;2783;48.730;8.006;2023-04-26T00:38:32;100231.56;;;8.92;100.00
5522;BME280;2783;48.730;8.006;2023-04-26T00:40:57;100229.84;;;8.91;100.00
5522;BME280;2783;48.730;8.006;2023-04-26T00:43:22;100224.66;;;8.85;100.00
5522;BME280;2783;48.730;8.006;2023-04-26T00:45:48;100234.44;;;8.83;100.00
5522;BME280;2783;48.730;8.006;2023-04-26T00:48:13;100228.31;;;8.79;100.00
5522;BME280;2783;48.730;8.006;2023-04-26T00:50:39;100235.53;;;8.73;100.00
5522;BME280;2783;48.730;8.006;2023-04-26T00:53:04;100227.75;;;8.65;100.00
5522;BME280;2783;48.730;8.006;2023-04-26T00:55:31;100239.38;;;8.60;100.00
5522;BME280;2783;48.730;8.006;2023-04-26T00:57:57;100242.91;;;8.59;100.00
5522;BME280;2783;48.730;8.006;2023-04-26T01:00:22;100245.66;;;8.54;100.00
5522;BME280;2783;48.730;8.006;2023-04-26T01:02:47;100243.13;;;8.50;100.00
5522;BME280;2783;48.730;8.006;2023-04-26T01:05:12;100246.78;;;8.43;100.00
5522;BME280;2783;48.730;8.006;2023-04-26T01:07:38;100239.84;;;8.36;100.00
5522;BME280;2783;48.730;8.006;2023-04-26T01:10:04;100242.56;;;8.33;100.00
5522;BME280;2783;48.730;8.006;2023-04-26T01:12:30;100240.84;;;8.32;100.00
5522;BME280;2783;48.730;8.006;2023-04-26T01:14:56;100247.03;;;8.31;100.00
5522;BME280;2783;48.730;8.006;2023-04-26T01:17:21;100239.09;;;8.29;100.00
5522;BME280;2783;48.730;8.006;2023-04-26T01:19:47;100237.38;;;8.28;100.00
5522;BME280;2783;48.730;8.006;2023-04-26T01:22:12;100242.72;;;8.25;100.00
5522;BME280;2783;48.730;8.006;2023-04-26T01:24:37;100237.44;;;8.25;100.00
5522;BME280;2783;48.730;8.006;2023-04-26T01:27:04;100231.25;;;8.25;100.00
5522;BME280;2783;48.730;8.006;2023-04-26T01:29:30;100235.69;;;8.21;100.00
5522;BME280;2783;48.730;8.006;2023-04-26T01:31:55;100229.56;;;8.19;100.00
5522;BME280;2783;48.730;8.006;2023-04-26T01:34:21;100232.22;;;8.18;100.00
5522;BME280;2783;48.730;8.006;2023-04-26T01:36:46;100240.19;;;8.18;100.00
5522;BME280;2783;48.730;8.006;2023-04-26T01:39:11;100241.03;;;8.20;100.00
5522;BME280;2783;48.730;8.006;2023-04-26T01:41:37;100237.41;;;8.27;100.00
5522;BME280;2783;48.730;8.006;2023-04-26T01:44:02;100237.41;;;8.27;100.00
5522;BME280;2783;48.730;8.006;2023-04-26T01:46:28;100246.97;;;8.32;100.00
5522;BME280;2783;48.730;8.006;2023-04-26T01:48:53;100239.06;;;8.31;100.00
5522;BME280;2783;48.730;8.006;2023-04-26T01:51:18;100247.03;;;8.31;100.00
5522;BME280;2783;48.730;8.006;2023-04-26T01:53:43;100247.09;;;8.28;100.00
5522;BME280;2783;48.730;8.006;2023-04-26T01:56:09;100254.19;;;8.26;100.00
5522;BME280;2783;48.730;8.006;2023-04-26T01:58:34;100250.66;;;8.27;100.00
5522;BME280;2783;48.730;8.006;2023-04-26T02:01:06;100253.38;;;8.24;100.00
5522;BME280;2783;48.730;8.006;2023-04-26T02:03:32;100241.88;;;8.23;100.00
5522;BME280;2783;48.730;8.006;2023-04-26T02:05:57;100243.69;;;8.20;100.00
5522;BME280;2783;48.730;8.006;2023-04-26T02:08:22;100242.00;;;8.14;100.00
5522;BME280;2783;48.730;8.006;2023-04-26T02:10:48;100243.97;;;8.04;100.00
5522;BME280;2783;48.730;8.006;2023-04-26T02:13:13;100244.13;;;7.97;100.00
5522;BME280;2783;48.730;8.006;2023-04-26T02:15:38;100242.50;;;7.88;100.00
5522;BME280;2783;48.730;8.006;2023-04-26T02:18:04;100242.63;;;7.81;100.00
5522;BME280;2783;48.730;8.006;2023-04-26T02:20:30;100247.13;;;7.77;100.00
5522;BME280;2783;48.730;8.006;2023-04-26T02:22:55;100249.88;;;7.71;100.00
5522;BME280;2783;48.730;8.006;2023-04-26T02:25:20;100248.13;;;7.70;100.00
5522;BME280;2783;48.730;8.006;2023-04-26T02:27:46;100256.16;;;7.66;100.00
5522;BME280;2783;48.730;8.006;2023-04-26T02:30:11;100249.16;;;7.62;100.00
5522;BME280;2783;48.730;8.006;2023-04-26T02:32:37;100253.56;;;7.61;100.00
5522;BME280;2783;48.730;8.006;2023-04-26T02:35:02;100258.94;;;7.58;100.00
5522;BME280;2783;48.730;8.006;2023-04-26T02:37:29;100260.69;;;7.59;100.00
5522;BME280;2783;48.730;8.006;2023-04-26T02:39:54;100255.19;;;7.70;100.00
5522;BME280;2783;48.730;8.006;2023-04-26T02:42:20;100260.31;;;7.80;100.00
5522;BME280;2783;48.730;8.006;2023-04-26T02:44:45;100250.44;;;7.90;100.00
5522;BME280;2783;48.730;8.006;2023-04-26T02:47:10;100243.19;;;7.99;100.00
5522;BME280;2783;48.730;8.006;2023-04-26T02:49:36;100241.31;;;8.04;100.00
5522;BME280;2783;48.730;8.006;2023-04-26T02:52:01;100247.47;;;8.07;100.00
5522;BME280;2783;48.730;8.006;2023-04-26T02:54:26;100246.53;;;8.09;100.00
5522;BME280;2783;48.730;8.006;2023-04-26T02:56:51;100243.84;;;8.11;100.00
5522;BME280;2783;48.730;8.006;2023-04-26T02:59:17;100256.06;;;8.18;100.00
5522;BME280;2783;48.730;8.006;2023-04-26T03:01:42;100248.91;;;8.23;100.00
5522;BME280;2783;48.730;8.006;2023-04-26T03:07:01;100240.25;;;8.15;100.00
5522;BME280;2783;48.730;8.006;2023-04-26T03:09:27;100241.97;;;8.16;100.00
5522;BME280;2783;48.730;8.006;2023-04-26T03:11:52;100238.44;;;8.17;100.00
5522;BME280;2783;48.730;8.006;2023-04-26T03:14:17;100236.63;;;8.20;100.00
5522;BME280;2783;48.730;8.006;2023-04-26T03:16:43;100234.88;;;8.18;100.00
5522;BME280;2783;48.730;8.006;2023-04-26T03:19:08;100236.63;;;8.20;100.00
5522;BME280;2783;48.730;8.006;2023-04-26T03:21:34;100231.25;;;8.25;100.00
5522;BME280;2783;48.730;8.006;2023-04-26T03:23:59;100231.19;;;8.28;100.00
5522;BME280;2783;48.730;8.006;2023-04-26T03:26:24;100234.69;;;8.30;100.00
5522;BME280;2783;48.730;8.006;2023-04-26T03:28:50;100234.75;;;8.27;100.00
5522;BME280;2783;48.730;8.006;2023-04-26T03:31:15;100233.94;;;8.23;100.00
5522;BME280;2783;48.730;8.006;2023-04-26T03:33:41;100236.66;;;8.19;100.00
5522;BME280;2783;48.730;8.006;2023-04-26T03:36:06;100238.50;;;8.14;100.00
5522;BME280;2783;48.730;8.006;2023-04-26T03:38:31;100235.06;;;8.09;100.00
5522;BME280;2783;48.730;8.006;2023-04-26T03:40:56;100236.88;;;8.07;100.00
5522;BME280;2783;48.730;8.006;2023-04-26T03:43:22;100223.78;;;7.97;100.00
5522;BME280;2783;48.730;8.006;2023-04-26T03:45:48;100223.84;;;7.94;100.00
5522;BME280;2783;48.730;8.006;2023-04-26T03:48:13;100221.31;;;7.88;100.00
5522;BME280;2783;48.730;8.006;2023-04-26T03:50:38;100216.94;;;7.86;100.00
5522;BME280;2783;48.730;8.006;2023-04-26T03:53:04;100218.78;;;7.84;100.00
5522;BME280;2783;48.730;8.006;2023-04-26T03:55:29;100223.31;;;7.77;100.00
5522;BME280;2783;48.730;8.006;2023-04-26T03:57:54;100223.47;;;7.68;100.00
5522;BME280;2783;48.730;8.006;2023-04-26T04:00:19;100227.97;;;7.63;100.00
5522;BME280;2783;48.730;8.006;2023-04-26T04:02:45;100220.09;;;7.59;100.00
5522;BME280;2783;48.730;8.006;2023-04-26T04:05:10;100220.16;;;7.56;100.00
5522;BME280;2783;48.730;8.006;2023-04-26T04:07:35;100224.63;;;7.52;100.00
5522;BME280;2783;48.730;8.006;2023-04-26T04:10:01;100230.00;;;7.48;100.00
5522;BME280;2783;48.730;8.006;2023-04-26T04:12:26;100224.72;;;7.46;100.00
5522;BME280;2783;48.730;8.006;2023-04-26T04:14:52;100221.25;;;7.44;100.00
5522;BME280;2783;48.730;8.006;2023-04-26T04:17:17;100220.38;;;7.42;100.00
5522;BME280;2783;48.730;8.006;2023-04-26T04:19:43;100216.84;;;7.42;100.00
5522;BME280;2783;48.730;8.006;2023-04-26T04:22:09;100216.94;;;7.37;100.00
5522;BME280;2783;48.730;8.006;2023-04-26T04:24:34;100217.84;;;7.35;100.00
5522;BME280;2783;48.730;8.006;2023-04-26T04:26:59;100225.81;;;7.33;100.00
5522;BME280;2783;48.730;8.006;2023-04-26T04:29:25;100222.34;;;7.30;100.00
5522;BME280;2783;48.730;8.006;2023-04-26T04:31:50;100224.22;;;7.25;100.00
5522;BME280;2783;48.730;8.006;2023-04-26T04:34:16;100232.25;;;7.17;100.00
5522;BME280;2783;48.730;8.006;2023-04-26T04:36:41;100235.81;;;7.16;100.00
5522;BME280;2783;48.730;8.006;2023-04-26T04:39:07;100243.75;;;7.16;100.00
5522;BME280;2783;48.730;8.006;2023-04-26T04:41:40;100237.63;;;7.13;100.00
5522;BME280;2783;48.730;8.006;2023-04-26T04:44:11;100246.47;;;7.10;100.00
5522;BME280;2783;48.730;8.006;2023-04-26T04:46:37;100245.63;;;7.10;100.00
5522;BME280;2783;48.730;8.006;2023-04-26T04:49:02;100246.44;;;7.12;100.00
5522;BME280;2783;48.730;8.006;2023-04-26T04:51:27;100253.38;;;7.19;100.00
5522;BME280;2783;48.730;8.006;2023-04-26T04:53:53;100256.91;;;7.21;100.00
5522;BME280;2783;48.730;8.006;2023-04-26T04:56:18;100262.97;;;7.27;100.00
5522;BME280;2783;48.730;8.006;2023-04-26T04:58:43;100255.84;;;7.31;100.00
5522;BME280;2783;48.730;8.006;2023-04-26T05:01:08;100251.44;;;7.31;100.00
5522;BME280;2783;48.730;8.006;2023-04-26T05:03:34;100256.53;;;7.43;100.00
5522;BME280;2783;48.730;8.006;2023-04-26T05:05:59;100256.47;;;7.46;100.00
5522;BME280;2783;48.730;8.006;2023-04-26T05:08:25;100254.63;;;7.51;100.00
5522;BME280;2783;48.730;8.006;2023-04-26T05:10:51;100260.63;;;7.62;100.00
5522;BME280;2783;48.730;8.006;2023-04-26T05:13:17;100267.41;;;7.78;100.00
5522;BME280;2783;48.730;8.006;2023-04-26T05:15:42;100268.00;;;7.95;100.00
5522;BME280;2783;48.730;8.006;2023-04-26T05:18:07;100268.75;;;8.02;100.00
5522;BME280;2783;48.730;8.006;2023-04-26T05:20:33;100271.28;;;8.08;100.00
5522;BME280;2783;48.730;8.006;2023-04-26T05:22:58;100266.63;;;8.21;100.00
5522;BME280;2783;48.730;8.006;2023-04-26T05:25:23;100278.66;;;8.40;100.00
5522;BME280;2783;48.730;8.006;2023-04-26T05:27:48;100276.41;;;8.63;100.00
5522;BME280;2783;48.730;8.006;2023-04-26T05:30:14;100272.34;;;8.88;100.00
5522;BME280;2783;48.730;8.006;2023-04-26T05:32:39;100272.56;;;9.17;100.00
5522;BME280;2783;48.730;8.006;2023-04-26T05:35:05;100274.28;;;9.56;100.00
5522;BME280;2783;48.730;8.006;2023-04-26T05:37:30;100266.78;;;9.73;100.00
5522;BME280;2783;48.730;8.006;2023-04-26T05:39:56;100269.31;;;9.78;100.00
5522;BME280;2783;48.730;8.006;2023-04-26T05:42:21;100275.31;;;9.84;100.00
5522;BME280;2783;48.730;8.006;2023-04-26T05:44:46;100280.72;;;9.81;100.00
5522;BME280;2783;48.730;8.006;2023-04-26T05:47:12;100277.69;;;9.96;100.00
5522;BME280;2783;48.730;8.006;2023-04-26T05:49:37;100279.94;;;10.13;100.00
5522;BME280;2783;48.730;8.006;2023-04-26T05:52:02;100278.28;;;10.41;100.00
5522;BME280;2783;48.730;8.006;2023-04-26T05:54:28;100284.09;;;10.53;100.00
5522;BME280;2783;48.730;8.006;2023-04-26T05:56:53;100287.69;;;10.52;100.00
5522;BME280;2783;48.730;8.006;2023-04-26T05:59:18;100285.69;;;10.60;100.00
5522;BME280;2783;48.730;8.006;2023-04-26T06:01:43;100293.13;;;10.79;100.00
5522;BME280;2783;48.730;8.006;2023-04-26T06:04:09;100301.06;;;11.09;100.00
5522;BME280;2783;48.730;8.006;2023-04-26T06:06:34;100306.34;;;11.40;100.00
5522;BME280;2783;48.730;8.006;2023-04-26T06:08:59;100306.34;;;11.40;99.66
5522;BME280;2783;48.730;8.006;2023-04-26T06:11:25;100309.03;;;11.67;98.53
5522;BME280;2783;48.730;8.006;2023-04-26T06:13:50;100298.13;;;11.75;97.13
5522;BME280;2783;48.730;8.006;2023-04-26T06:16:16;100309.66;;;11.75;95.01
5522;BME280;2783;48.730;8.006;2023-04-26T06:18:41;100301.00;;;11.95;94.52
5522;BME280;2783;48.730;8.006;2023-04-26T06:21:06;100300.47;;;12.10;92.87
5522;BME280;2783;48.730;8.006;2023-04-26T06:23:32;100299.63;;;12.34;92.05
5522;BME280;2783;48.730;8.006;2023-04-26T06:25:57;100296.63;;;12.43;90.25
5522;BME280;2783;48.730;8.006;2023-04-26T06:28:23;100305.13;;;12.54;89.00
5522;BME280;2783;48.730;8.006;2023-04-26T06:30:48;100299.56;;;12.60;86.82
5522;BME280;2783;48.730;8.006;2023-04-26T06:33:14;100303.84;;;12.89;86.78
5522;BME280;2783;48.730;8.006;2023-04-26T06:35:39;100295.09;;;13.08;85.19
5522;BME280;2783;48.730;8.006;2023-04-26T06:38:05;100293.94;;;13.15;81.71
5522;BME280;2783;48.730;8.006;2023-04-26T06:40:30;100294.16;;;13.33;79.93
5522;BME280;2783;48.730;8.006;2023-04-26T06:42:55;100291.28;;;13.15;80.31
5522;BME280;2783;48.730;8.006;2023-04-26T06:45:21;100282.97;;;13.45;81.52
5522;BME280;2783;48.730;8.006;2023-04-26T06:47:46;100281.00;;;13.50;79.38
5522;BME280;2783;48.730;8.006;2023-04-26T06:50:11;100277.91;;;13.60;78.27
5522;BME280;2783;48.730;8.006;2023-04-26T06:52:37;100280.00;;;13.74;78.59
5522;BME280;2783;48.730;8.006;2023-04-26T06:55:02;100273.09;;;13.90;74.58
5522;BME280;2783;48.730;8.006;2023-04-26T06:57:28;100264.81;;;13.74;74.68
5522;BME280;2783;48.730;8.006;2023-04-26T06:59:53;100267.06;;;13.85;74.88
5522;BME280;2783;48.730;8.006;2023-04-26T07:02:18;100263.63;;;14.23;76.31
5522;BME280;2783;48.730;8.006;2023-04-26T07:04:44;100257.59;;;14.58;74.23
5522;BME280;2783;48.730;8.006;2023-04-26T07:07:09;100260.19;;;14.98;70.83
5522;BME280;2783;48.730;8.006;2023-04-26T07:09:35;100263.75;;;15.17;66.57
5522;BME280;2783;48.730;8.006;2023-04-26T07:12:00;100266.59;;;15.51;67.29
5522;BME280;2783;48.730;8.006;2023-04-26T07:14:26;100261.69;;;15.95;67.36
5522;BME280;2783;48.730;8.006;2023-04-26T07:16:51;100264.97;;;16.19;63.91
5522;BME280;2783;48.730;8.006;2023-04-26T07:19:16;100272.63;;;16.60;61.95
5522;BME280;2783;48.730;8.006;2023-04-26T07:21:42;100269.44;;;16.69;59.24
5522;BME280;2783;48.730;8.006;2023-04-26T07:24:07;100274.47;;;16.75;57.36
5522;BME280;2783;48.730;8.006;2023-04-26T07:26:33;100273.44;;;16.95;59.60
5522;BME280;2783;48.730;8.006;2023-04-26T07:28:59;100274.34;;;16.78;59.16
5522;BME280;2783;48.730;8.006;2023-04-26T07:31:25;100274.47;;;16.75;61.38
5522;BME280;2783;48.730;8.006;2023-04-26T07:33:50;100269.31;;;16.88;58.31
5522;BME280;2783;48.730;8.006;2023-04-26T07:36:15;100265.47;;;17.09;55.85
5522;BME280;2783;48.730;8.006;2023-04-26T07:38:41;100271.03;;;17.37;56.80
5522;BME280;2783;48.730;8.006;2023-04-26T07:41:07;100265.00;;;17.49;55.04
5522;BME280;2783;48.730;8.006;2023-04-26T07:43:32;100267.25;;;17.41;53.94
5522;BME280;2783;48.730;8.006;2023-04-26T07:46:00;100268.16;;;17.09;50.50
5522;BME280;2783;48.730;8.006;2023-04-26T07:48:26;100268.66;;;17.64;55.20
5522;BME280;2783;48.730;8.006;2023-04-26T07:50:51;100261.22;;;17.98;53.57
5522;BME280;2783;48.730;8.006;2023-04-26T07:53:16;100261.50;;;17.94;54.77
5522;BME280;2783;48.730;8.006;2023-04-26T07:55:42;100261.72;;;18.34;53.76
5522;BME280;2783;48.730;8.006;2023-04-26T07:58:07;100275.97;;;18.36;51.98
5522;BME280;2783;48.730;8.006;2023-04-26T08:00:33;100266.91;;;18.53;54.13
5522;BME280;2783;48.730;8.006;2023-04-26T08:03:02;100267.56;;;18.85;50.76
5522;BME280;2783;48.730;8.006;2023-04-26T08:05:27;100278.75;;;19.07;51.29
5522;BME280;2783;48.730;8.006;2023-04-26T08:07:53;100273.19;;;19.38;50.92
5522;BME280;2783;48.730;8.006;2023-04-26T08:10:18;100277.47;;;19.54;48.32
5522;BME280;2783;48.730;8.006;2023-04-26T08:12:43;100265.56;;;19.44;48.08
5522;BME280;2783;48.730;8.006;2023-04-26T08:15:09;100268.41;;;19.55;49.67
5522;BME280;2783;48.730;8.006;2023-04-26T08:17:34;100274.16;;;20.31;48.52
5522;BME280;2783;48.730;8.006;2023-04-26T08:19:59;100277.97;;;20.53;47.42
5522;BME280;2783;48.730;8.006;2023-04-26T08:22:25;100274.84;;;20.84;44.39
5522;BME280;2783;48.730;8.006;2023-04-26T08:24:54;100278.88;;;21.17;46.18
5522;BME280;2783;48.730;8.006;2023-04-26T08:27:20;100278.84;;;20.79;44.40
5522;BME280;2783;48.730;8.006;2023-04-26T08:29:45;100280.75;;;21.04;45.74
5522;BME280;2783;48.730;8.006;2023-04-26T08:32:11;100282.22;;;20.95;44.42
5522;BME280;2783;48.730;8.006;2023-04-26T08:34:36;100265.41;;;21.40;44.25
5522;BME280;2783;48.730;8.006;2023-04-26T08:37:01;100269.16;;;21.50;43.67
5522;BME280;2783;48.730;8.006;2023-04-26T08:39:27;100264.56;;;21.40;41.95
5522;BME280;2783;48.730;8.006;2023-04-26T08:41:53;100269.09;;;20.89;44.15
5522;BME280;2783;48.730;8.006;2023-04-26T08:44:22;100271.28;;;20.59;44.95
5522;BME280;2783;48.730;8.006;2023-04-26T08:47:00;100263.59;;;20.65;44.82
5522;BME280;2783;48.730;8.006;2023-04-26T08:51:53;100253.22;;;20.84;42.28
5522;BME280;2783;48.730;8.006;2023-04-26T08:54:20;100259.59;;;21.21;44.34
5522;BME280;2783;48.730;8.006;2023-04-26T08:56:46;100252.78;;;21.16;41.60
5522;BME280;2783;48.730;8.006;2023-04-26T08:59:11;100256.81;;;20.98;42.18
5522;BME280;2783;48.730;8.006;2023-04-26T09:01:40;100252.81;;;21.52;43.43
5522;BME280;2783;48.730;8.006;2023-04-26T09:04:07;100249.78;;;21.56;43.06
5522;BME280;2783;48.730;8.006;2023-04-26T09:06:33;100254.97;;;21.59;42.80
5522;BME280;2783;48.730;8.006;2023-04-26T09:08:59;100259.25;;;21.26;39.39
5522;BME280;2783;48.730;8.006;2023-04-26T09:11:26;100250.59;;;21.69;41.70
5522;BME280;2783;48.730;8.006;2023-04-26T09:13:51;100252.41;;;21.81;37.96
5522;BME280;2783;48.730;8.006;2023-04-26T09:16:17;100253.91;;;22.09;40.32
5522;BME280;2783;48.730;8.006;2023-04-26T09:18:48;100245.31;;;21.68;38.63
5522;BME280;2783;48.730;8.006;2023-04-26T09:21:15;100247.25;;;21.66;39.89
5522;BME280;2783;48.730;8.006;2023-04-26T09:23:58;100236.03;;;21.47;38.74
5522;BME280;2783;48.730;8.006;2023-04-26T09:26:24;100246.78;;;21.36;41.33
5522;BME280;2783;48.730;8.006;2023-04-26T09:28:52;100238.84;;;21.09;40.80
5522;BME280;2783;48.730;8.006;2023-04-26T09:31:39;100248.88;;;20.57;39.25
5522;BME280;2783;48.730;8.006;2023-04-26T09:34:04;100242.38;;;20.47;41.44
5522;BME280;2783;48.730;8.006;2023-04-26T09:36:30;100244.22;;;20.46;38.92
5522;BME280;2783;48.730;8.006;2023-04-26T09:38:56;100235.16;;;20.47;42.19
5522;BME280;2783;48.730;8.006;2023-04-26T09:41:21;100241.53;;;20.07;43.20
5522;BME280;2783;48.730;8.006;2023-04-26T09:43:47;100235.81;;;20.76;47.15
5522;BME280;2783;48.730;8.006;2023-04-26T09:46:19;100229.88;;;20.83;41.73
5522;BME280;2783;48.730;8.006;2023-04-26T09:48:46;100228.97;;;21.57;41.91
5522;BME280;2783;48.730;8.006;2023-04-26T09:51:24;100236.56;;;21.52;41.14
5522;BME280;2783;48.730;8.006;2023-04-26T09:53:49;100230.31;;;21.75;40.83
5522;BME280;2783;48.730;8.006;2023-04-26T09:56:15;100231.91;;;21.90;41.22
5522;BME280;2783;48.730;8.006;2023-04-26T10:01:15;100224.00;;;21.87;43.38
5522;BME280;2783;48.730;8.006;2023-04-26T10:03:41;100228.91;;;21.82;41.35
5522;BME280;2783;48.730;8.006;2023-04-26T10:06:07;100236.94;;;20.99;40.06
5522;BME280;2783;48.730;8.006;2023-04-26T10:08:33;100233.84;;;20.53;42.68
5522;BME280;2783;48.730;8.006;2023-04-26T10:10:59;100226.41;;;20.81;41.46
5522;BME280;2783;48.730;8.006;2023-04-26T10:13:25;100197.72;;;21.53;40.03
5522;BME280;2783;48.730;8.006;2023-04-26T10:15:51;100221.56;;;21.48;40.38
5522;BME280;2783;48.730;8.006;2023-04-26T10:18:16;100216.66;;;21.53;40.54
5522;BME280;2783;48.730;8.006;2023-04-26T10:20:42;100218.22;;;21.32;37.64
5522;BME280;2783;48.730;8.006;2023-04-26T10:23:11;100224.56;;;20.82;37.22
5522;BME280;2783;48.730;8.006;2023-04-26T10:25:38;100229.09;;;20.56;36.09
5522;BME280;2783;48.730;8.006;2023-04-26T10:28:04;100232.31;;;20.36;39.00
5522;BME280;2783;48.730;8.006;2023-04-26T10:30:29;100229.44;;;20.39;40.30
5522;BME280;2783;48.730;8.006;2023-04-26T10:35:22;100226.06;;;20.36;38.95
5522;BME280;2783;48.730;8.006;2023-04-26T10:40:29;100219.16;;;20.44;42.03
5522;BME280;2783;48.730;8.006;2023-04-26T10:43:38;100217.88;;;20.62;40.93
5522;BME280;2783;48.730;8.006;2023-04-26T10:45:45;100218.72;;;21.85;37.08
5522;BME280;2783;48.730;8.006;2023-04-26T10:48:13;100216.28;;;22.28;35.98
5522;BME280;2783;48.730;8.006;2023-04-26T10:51:14;100212.00;;;23.04;35.96
5522;BME280;2783;48.730;8.006;2023-04-26T10:56:10;100205.81;;;23.02;32.94
5522;BME280;2783;48.730;8.006;2023-04-26T10:58:39;100201.88;;;22.84;35.17
5522;BME280;2783;48.730;8.006;2023-04-26T11:01:15;100206.56;;;21.91;32.50
5522;BME280;2783;48.730;8.006;2023-04-26T11:03:42;100188.78;;;21.40;34.50
5522;BME280;2783;48.730;8.006;2023-04-26T11:06:07;100184.97;;;20.93;37.64
5522;BME280;2783;48.730;8.006;2023-04-26T11:08:33;100186.66;;;21.20;36.52
5522;BME280;2783;48.730;8.006;2023-04-26T11:13:32;100174.44;;;21.50;35.59
5522;BME280;2783;48.730;8.006;2023-04-26T11:16:01;100172.00;;;21.35;37.09
5522;BME280;2783;48.730;8.006;2023-04-26T11:18:28;100159.41;;;21.93;35.36
5522;BME280;2783;48.730;8.006;2023-04-26T11:20:53;100156.38;;;22.09;34.05
5522;BME280;2783;48.730;8.006;2023-04-26T11:23:19;100153.06;;;21.82;35.76
5522;BME280;2783;48.730;8.006;2023-04-26T11:25:44;100154.78;;;21.83;35.79
5522;BME280;2783;48.730;8.006;2023-04-26T11:28:10;100151.78;;;21.75;34.06
5522;BME280;2783;48.730;8.006;2023-04-26T11:30:35;100149.75;;;21.89;37.04
5522;BME280;2783;48.730;8.006;2023-04-26T11:33:02;100154.97;;;21.69;33.76
5522;BME280;2783;48.730;8.006;2023-04-26T11:35:37;100141.59;;;22.13;37.09
5522;BME280;2783;48.730;8.006;2023-04-26T11:38:03;100136.53;;;22.54;36.82
5522;BME280;2783;48.730;8.006;2023-04-26T11:40:30;100124.66;;;22.88;33.88
5522;BME280;2783;48.730;8.006;2023-04-26T11:43:04;100126.53;;;23.84;34.14
5522;BME280;2783;48.730;8.006;2023-04-26T11:45:30;100123.63;;;24.58;31.48
5522;BME280;2783;48.730;8.006;2023-04-26T11:47:56;100141.28;;;24.02;30.83
5522;BME280;2783;48.730;8.006;2023-04-26T11:50:22;100140.16;;;22.42;32.07
5522;BME280;2783;48.730;8.006;2023-04-26T11:52:51;100138.03;;;20.82;34.41
5522;BME280;2783;48.730;8.006;2023-04-26T11:55:18;100139.16;;;20.17;34.45
5522;BME280;2783;48.730;8.006;2023-04-26T11:57:48;100143.91;;;20.63;35.80
5522;BME280;2783;48.730;8.006;2023-04-26T12:00:14;100137.16;;;21.07;34.11
5522;BME280;2783;48.730;8.006;2023-04-26T12:02:43;100132.16;;;21.13;33.21
5522;BME280;2783;48.730;8.006;2023-04-26T12:05:10;100129.31;;;21.15;33.88
5522;BME280;2783;48.730;8.006;2023-04-26T12:07:35;100133.69;;;21.99;33.17
5522;BME280;2783;48.730;8.006;2023-04-26T12:10:17;100138.09;;;21.89;33.92
5522;BME280;2783;48.730;8.006;2023-04-26T12:12:43;100133.91;;;21.25;34.65
5522;BME280;2783;48.730;8.006;2023-04-26T12:15:10;100128.63;;;21.71;35.89
5522;BME280;2783;48.730;8.006;2023-04-26T12:17:35;100130.50;;;22.16;33.54
5522;BME280;2783;48.730;8.006;2023-04-26T12:20:07;100123.06;;;22.97;32.98
5522;BME280;2783;48.730;8.006;2023-04-26T12:22:32;100125.44;;;22.79;36.30
5522;BME280;2783;48.730;8.006;2023-04-26T12:25:07;100121.84;;;22.68;32.01
5522;BME280;2783;48.730;8.006;2023-04-26T12:27:33;100123.19;;;22.40;32.75
5522;BME280;2783;48.730;8.006;2023-04-26T12:29:58;100122.09;;;22.98;34.89
5522;BME280;2783;48.730;8.006;2023-04-26T12:32:24;100122.28;;;23.17;33.70
5522;BME280;2783;48.730;8.006;2023-04-26T12:34:49;100121.41;;;23.38;32.89
5522;BME280;2783;48.730;8.006;2023-04-26T12:37:15;100111.78;;;23.66;32.74
5522;BME280;2783;48.730;8.006;2023-04-26T12:39:40;100116.75;;;23.93;32.94
5522;BME280;2783;48.730;8.006;2023-04-26T12:42:05;100113.94;;;24.15;32.72
5522;BME280;2783;48.730;8.006;2023-04-26T12:44:31;100119.09;;;24.18;29.45
5522;BME280;2783;48.730;8.006;2023-04-26T12:46:56;100111.25;;;24.04;32.30
5522;BME280;2783;48.730;8.006;2023-04-26T12:49:21;100111.38;;;23.82;29.68
5522;BME280;2783;48.730;8.006;2023-04-26T12:51:46;100114.72;;;23.74;31.05
5522;BME280;2783;48.730;8.006;2023-04-26T12:54:12;100104.72;;;23.75;32.84
5522;BME280;2783;48.730;8.006;2023-04-26T12:56:37;100120.94;;;24.38;30.50
5522;BME280;2783;48.730;8.006;2023-04-26T12:59:07;100110.47;;;24.13;29.65
5522;BME280;2783;48.730;8.006;2023-04-26T13:01:33;100115.03;;;23.92;31.57
5522;BME280;2783;48.730;8.006;2023-04-26T13:03:58;100112.91;;;23.95;32.44
5522;BME280;2783;48.730;8.006;2023-04-26T13:06:24;100114.91;;;24.14;31.67
5522;BME280;2783;48.730;8.006;2023-04-26T13:08:51;100114.38;;;23.99;30.38
5522;BME280;2783;48.730;8.006;2023-04-26T13:11:17;100114.03;;;24.34;32.04
5522;BME280;2783;48.730;8.006;2023-04-26T13:13:42;100109.94;;;24.69;30.83
5522;BME280;2783;48.730;8.006;2023-04-26T13:16:07;100109.41;;;24.76;31.58
5522;BME280;2783;48.730;8.006;2023-04-26T13:18:32;100115.69;;;24.25;29.98
5522;BME280;2783;48.730;8.006;2023-04-26T13:20:58;100113.97;;;23.52;29.44
5522;BME280;2783;48.730;8.006;2023-04-26T13:23:23;100111.91;;;23.22;31.46